sensor_id;sensor_type;location;lat;lon;timestamp;P1;durP1;ratioP1;P2;durP2;ratioP2
58414;SDS011;44210;42.706;18.344;2023-01-24T00:01:13;5.30;;;3.70;;
58414;SDS011;44210;42.706;18.344;2023-01-24T00:03:39;6.35;;;3.55;;
58414;SDS011;44210;42.706;18.344;2023-01-24T00:06:05;4.40;;;2.55;;
58414;SDS011;44210;42.706;18.344;2023-01-24T00:08:31;6.55;;;2.83;;
58414;SDS011;44210;42.706;18.344;2023-01-24T00:11:01;4.80;;;2.47;;
58414;SDS011;44210;42.706;18.344;2023-01-24T00:13:28;5.95;;;3.00;;
58414;SDS011;44210;42.706;18.344;2023-01-24T00:16:14;8.13;;;3.05;;
58414;SDS011;44210;42.706;18.344;2023-01-24T00:18:40;4.95;;;2.55;;
58414;SDS011;44210;42.706;18.344;2023-01-24T00:21:10;4.20;;;2.10;;
58414;SDS011;44210;42.706;18.344;2023-01-24T00:23:41;3.75;;;2.60;;
58414;SDS011;44210;42.706;18.344;2023-01-24T00:26:07;5.85;;;2.47;;
58414;SDS011;44210;42.706;18.344;2023-01-24T00:28:34;4.03;;;2.28;;
58414;SDS011;44210;42.706;18.344;2023-01-24T00:31:00;4.47;;;2.60;;
58414;SDS011;44210;42.706;18.344;2023-01-24T00:33:27;5.43;;;2.95;;
58414;SDS011;44210;42.706;18.344;2023-01-24T00:35:53;4.57;;;2.90;;
58414;SDS011;44210;42.706;18.344;2023-01-24T00:38:19;11.05;;;4.55;;
58414;SDS011;44210;42.706;18.344;2023-01-24T00:40:46;8.35;;;3.78;;
58414;SDS011;44210;42.706;18.344;2023-01-24T00:43:12;4.72;;;3.13;;
58414;SDS011;44210;42.706;18.344;2023-01-24T00:45:38;3.30;;;2.42;;
58414;SDS011;44210;42.706;18.344;2023-01-24T00:48:05;5.18;;;3.22;;
58414;SDS011;44210;42.706;18.344;2023-01-24T00:50:31;3.95;;;2.70;;
58414;SDS011;44210;42.706;18.344;2023-01-24T00:52:57;4.95;;;2.22;;
58414;SDS011;44210;42.706;18.344;2023-01-24T00:55:24;4.18;;;2.00;;
58414;SDS011;44210;42.706;18.344;2023-01-24T00:57:50;4.80;;;2.08;;
58414;SDS011;44210;42.706;18.344;2023-01-24T01:00:16;4.18;;;2.28;;
58414;SDS011;44210;42.706;18.344;2023-01-24T01:02:42;4.95;;;3.00;;
58414;SDS011;44210;42.706;18.344;2023-01-24T01:05:08;6.05;;;3.63;;
58414;SDS011;44210;42.706;18.344;2023-01-24T01:07:34;5.68;;;3.50;;
58414;SDS011;44210;42.706;18.344;2023-01-24T01:10:00;7.30;;;3.25;;
58414;SDS011;44210;42.706;18.344;2023-01-24T01:12:26;9.40;;;4.35;;
58414;SDS011;44210;42.706;18.344;2023-01-24T01:14:52;3.75;;;2.58;;
58414;SDS011;44210;42.706;18.344;2023-01-24T01:17:19;4.70;;;2.63;;
58414;SDS011;44210;42.706;18.344;2023-01-24T01:19:45;5.35;;;2.63;;
58414;SDS011;44210;42.706;18.344;2023-01-24T01:22:11;4.78;;;2.63;;
58414;SDS011;44210;42.706;18.344;2023-01-24T01:24:37;3.90;;;2.10;;
58414;SDS011;44210;42.706;18.344;2023-01-24T01:27:03;4.68;;;2.08;;
58414;SDS011;44210;42.706;18.344;2023-01-24T01:29:29;7.55;;;2.40;;
58414;SDS011;44210;42.706;18.344;2023-01-24T01:31:55;5.38;;;2.03;;
58414;SDS011;44210;42.706;18.344;2023-01-24T01:34:21;5.05;;;2.90;;
58414;SDS011;44210;42.706;18.344;2023-01-24T01:36:47;3.85;;;2.30;;
58414;SDS011;44210;42.706;18.344;2023-01-24T01:39:13;4.30;;;2.42;;
58414;SDS011;44210;42.706;18.344;2023-01-24T01:41:39;5.57;;;2.00;;
58414;SDS011;44210;42.706;18.344;2023-01-24T01:47:16;7.15;;;3.03;;
58414;SDS011;44210;42.706;18.344;2023-01-24T01:52:33;3.67;;;2.45;;
58414;SDS011;44210;42.706;18.344;2023-01-24T01:55:02;4.35;;;3.13;;
58414;SDS011;44210;42.706;18.344;2023-01-24T01:57:29;5.05;;;2.28;;
58414;SDS011;44210;42.706;18.344;2023-01-24T01:59:58;4.82;;;2.13;;
58414;SDS011;44210;42.706;18.344;2023-01-24T02:02:24;4.18;;;1.77;;
58414;SDS011;44210;42.706;18.344;2023-01-24T02:05:01;4.45;;;2.35;;
58414;SDS011;44210;42.706;18.344;2023-01-24T02:07:32;4.30;;;2.00;;
58414;SDS011;44210;42.706;18.344;2023-01-24T02:10:00;6.45;;;3.70;;
58414;SDS011;44210;42.706;18.344;2023-01-24T02:12:27;6.43;;;3.85;;
58414;SDS011;44210;42.706;18.344;2023-01-24T02:14:55;8.05;;;3.40;;
58414;SDS011;44210;42.706;18.344;2023-01-24T02:17:41;7.60;;;3.13;;
58414;SDS011;44210;42.706;18.344;2023-01-24T02:20:21;4.13;;;2.58;;
58414;SDS011;44210;42.706;18.344;2023-01-24T02:27:52;4.25;;;2.58;;
58414;SDS011;44210;42.706;18.344;2023-01-24T02:30:18;4.47;;;2.50;;
58414;SDS011;44210;42.706;18.344;2023-01-24T02:32:44;3.95;;;2.25;;
58414;SDS011;44210;42.706;18.344;2023-01-24T02:35:27;3.85;;;2.50;;
58414;SDS011;44210;42.706;18.344;2023-01-24T02:37:53;3.60;;;2.22;;
58414;SDS011;44210;42.706;18.344;2023-01-24T02:40:21;4.10;;;2.55;;
58414;SDS011;44210;42.706;18.344;2023-01-24T02:42:48;5.00;;;2.78;;
58414;SDS011;44210;42.706;18.344;2023-01-24T02:45:16;7.93;;;2.42;;
58414;SDS011;44210;42.706;18.344;2023-01-24T02:47:45;5.32;;;2.33;;
58414;SDS011;44210;42.706;18.344;2023-01-24T02:50:12;4.40;;;2.55;;
58414;SDS011;44210;42.706;18.344;2023-01-24T02:52:38;3.40;;;1.65;;
58414;SDS011;44210;42.706;18.344;2023-01-24T02:55:23;3.03;;;1.95;;
58414;SDS011;44210;42.706;18.344;2023-01-24T02:57:50;2.92;;;2.03;;
58414;SDS011;44210;42.706;18.344;2023-01-24T03:00:38;2.85;;;1.90;;
58414;SDS011;44210;42.706;18.344;2023-01-24T03:05:31;7.80;;;3.95;;
58414;SDS011;44210;42.706;18.344;2023-01-24T03:08:16;6.38;;;3.08;;
58414;SDS011;44210;42.706;18.344;2023-01-24T03:10:42;5.88;;;2.95;;
58414;SDS011;44210;42.706;18.344;2023-01-24T03:13:11;4.22;;;1.83;;
58414;SDS011;44210;42.706;18.344;2023-01-24T03:15:58;4.70;;;1.80;;
58414;SDS011;44210;42.706;18.344;2023-01-24T03:18:43;4.90;;;1.92;;
58414;SDS011;44210;42.706;18.344;2023-01-24T03:21:27;3.47;;;2.35;;
58414;SDS011;44210;42.706;18.344;2023-01-24T03:24:12;3.33;;;2.20;;
58414;SDS011;44210;42.706;18.344;2023-01-24T03:26:57;4.13;;;2.50;;
58414;SDS011;44210;42.706;18.344;2023-01-24T03:29:41;4.80;;;2.58;;
58414;SDS011;44210;42.706;18.344;2023-01-24T03:32:26;4.80;;;2.30;;
58414;SDS011;44210;42.706;18.344;2023-01-24T03:35:10;3.58;;;2.13;;
58414;SDS011;44210;42.706;18.344;2023-01-24T03:37:36;6.57;;;2.33;;
58414;SDS011;44210;42.706;18.344;2023-01-24T03:40:21;10.43;;;2.65;;
58414;SDS011;44210;42.706;18.344;2023-01-24T03:42:47;3.47;;;2.10;;
58414;SDS011;44210;42.706;18.344;2023-01-24T03:45:17;5.03;;;2.25;;
58414;SDS011;44210;42.706;18.344;2023-01-24T03:47:49;5.93;;;2.45;;
58414;SDS011;44210;42.706;18.344;2023-01-24T03:53:18;5.38;;;2.90;;
58414;SDS011;44210;42.706;18.344;2023-01-24T03:55:44;7.82;;;3.22;;
58414;SDS011;44210;42.706;18.344;2023-01-24T03:58:11;5.13;;;2.58;;
58414;SDS011;44210;42.706;18.344;2023-01-24T04:00:37;5.38;;;3.33;;
58414;SDS011;44210;42.706;18.344;2023-01-24T04:03:03;3.25;;;1.92;;
58414;SDS011;44210;42.706;18.344;2023-01-24T04:05:29;7.45;;;2.47;;
58414;SDS011;44210;42.706;18.344;2023-01-24T04:07:57;3.80;;;2.22;;
58414;SDS011;44210;42.706;18.344;2023-01-24T04:10:23;4.93;;;2.63;;
58414;SDS011;44210;42.706;18.344;2023-01-24T04:12:49;5.35;;;2.40;;
58414;SDS011;44210;42.706;18.344;2023-01-24T04:15:17;4.60;;;2.42;;
58414;SDS011;44210;42.706;18.344;2023-01-24T04:17:43;4.38;;;2.63;;
58414;SDS011;44210;42.706;18.344;2023-01-24T04:20:09;8.27;;;2.40;;
58414;SDS011;44210;42.706;18.344;2023-01-24T04:22:35;6.05;;;2.83;;
58414;SDS011;44210;42.706;18.344;2023-01-24T04:25:02;4.78;;;3.03;;
58414;SDS011;44210;42.706;18.344;2023-01-24T04:27:28;6.55;;;3.30;;
58414;SDS011;44210;42.706;18.344;2023-01-24T04:29:54;4.28;;;2.10;;
58414;SDS011;44210;42.706;18.344;2023-01-24T04:32:20;3.78;;;2.30;;
58414;SDS011;44210;42.706;18.344;2023-01-24T04:34:46;4.60;;;2.33;;
58414;SDS011;44210;42.706;18.344;2023-01-24T04:37:12;6.57;;;2.20;;
58414;SDS011;44210;42.706;18.344;2023-01-24T04:39:38;18.33;;;14.07;;
58414;SDS011;44210;42.706;18.344;2023-01-24T04:42:04;11.18;;;10.05;;
58414;SDS011;44210;42.706;18.344;2023-01-24T04:44:31;6.10;;;2.92;;
58414;SDS011;44210;42.706;18.344;2023-01-24T04:46:57;3.40;;;1.98;;
58414;SDS011;44210;42.706;18.344;2023-01-24T04:49:23;5.25;;;2.53;;
58414;SDS011;44210;42.706;18.344;2023-01-24T04:51:49;5.88;;;2.78;;
58414;SDS011;44210;42.706;18.344;2023-01-24T04:54:16;5.38;;;3.13;;
58414;SDS011;44210;42.706;18.344;2023-01-24T04:56:42;6.35;;;3.22;;
58414;SDS011;44210;42.706;18.344;2023-01-24T04:59:12;5.55;;;2.95;;
58414;SDS011;44210;42.706;18.344;2023-01-24T05:01:38;10.95;;;3.15;;
58414;SDS011;44210;42.706;18.344;2023-01-24T05:04:04;6.55;;;3.03;;
58414;SDS011;44210;42.706;18.344;2023-01-24T05:06:31;9.27;;;3.10;;
58414;SDS011;44210;42.706;18.344;2023-01-24T05:08:57;7.70;;;3.95;;
58414;SDS011;44210;42.706;18.344;2023-01-24T05:11:24;5.63;;;3.65;;
58414;SDS011;44210;42.706;18.344;2023-01-24T05:13:50;5.93;;;3.17;;
58414;SDS011;44210;42.706;18.344;2023-01-24T05:16:16;4.60;;;3.08;;
58414;SDS011;44210;42.706;18.344;2023-01-24T05:18:43;8.70;;;3.67;;
58414;SDS011;44210;42.706;18.344;2023-01-24T05:21:10;5.50;;;3.40;;
58414;SDS011;44210;42.706;18.344;2023-01-24T05:23:37;4.53;;;3.25;;
58414;SDS011;44210;42.706;18.344;2023-01-24T05:26:03;5.93;;;3.08;;
58414;SDS011;44210;42.706;18.344;2023-01-24T05:28:29;4.80;;;3.30;;
58414;SDS011;44210;42.706;18.344;2023-01-24T05:30:59;6.15;;;3.28;;
58414;SDS011;44210;42.706;18.344;2023-01-24T05:33:25;5.50;;;3.38;;
58414;SDS011;44210;42.706;18.344;2023-01-24T05:36:01;6.07;;;3.38;;
58414;SDS011;44210;42.706;18.344;2023-01-24T05:38:27;5.35;;;3.78;;
58414;SDS011;44210;42.706;18.344;2023-01-24T05:40:53;5.75;;;3.50;;
58414;SDS011;44210;42.706;18.344;2023-01-24T05:43:19;7.20;;;3.90;;
58414;SDS011;44210;42.706;18.344;2023-01-24T05:45:45;6.03;;;4.18;;
58414;SDS011;44210;42.706;18.344;2023-01-24T05:48:11;9.15;;;5.88;;
58414;SDS011;44210;42.706;18.344;2023-01-24T05:50:37;6.45;;;5.38;;
58414;SDS011;44210;42.706;18.344;2023-01-24T05:53:03;7.90;;;4.57;;
58414;SDS011;44210;42.706;18.344;2023-01-24T05:55:29;7.22;;;4.53;;
58414;SDS011;44210;42.706;18.344;2023-01-24T05:57:57;6.07;;;4.25;;
58414;SDS011;44210;42.706;18.344;2023-01-24T06:00:24;10.40;;;8.95;;
58414;SDS011;44210;42.706;18.344;2023-01-24T06:02:50;7.75;;;6.00;;
58414;SDS011;44210;42.706;18.344;2023-01-24T06:05:16;6.35;;;4.57;;
58414;SDS011;44210;42.706;18.344;2023-01-24T06:07:42;12.82;;;5.45;;
58414;SDS011;44210;42.706;18.344;2023-01-24T06:10:08;8.10;;;5.88;;
58414;SDS011;44210;42.706;18.344;2023-01-24T06:12:35;9.75;;;6.40;;
58414;SDS011;44210;42.706;18.344;2023-01-24T06:15:01;6.32;;;5.05;;
58414;SDS011;44210;42.706;18.344;2023-01-24T06:17:27;3.92;;;3.08;;
58414;SDS011;44210;42.706;18.344;2023-01-24T06:19:53;11.43;;;6.13;;
58414;SDS011;44210;42.706;18.344;2023-01-24T06:22:21;3.45;;;2.15;;
58414;SDS011;44210;42.706;18.344;2023-01-24T06:24:51;1.38;;;1.08;;
58414;SDS011;44210;42.706;18.344;2023-01-24T06:27:17;4.35;;;1.50;;
58414;SDS011;44210;42.706;18.344;2023-01-24T06:29:43;2.72;;;1.23;;
58414;SDS011;44210;42.706;18.344;2023-01-24T06:39:58;9.70;;;6.72;;
58414;SDS011;44210;42.706;18.344;2023-01-24T06:42:25;9.90;;;5.40;;
58414;SDS011;44210;42.706;18.344;2023-01-24T06:44:51;11.18;;;6.68;;
58414;SDS011;44210;42.706;18.344;2023-01-24T06:47:17;11.98;;;6.05;;
58414;SDS011;44210;42.706;18.344;2023-01-24T06:49:43;9.02;;;7.13;;
58414;SDS011;44210;42.706;18.344;2023-01-24T06:52:09;10.18;;;6.93;;
58414;SDS011;44210;42.706;18.344;2023-01-24T06:54:35;12.77;;;7.55;;
58414;SDS011;44210;42.706;18.344;2023-01-24T06:57:01;13.93;;;7.20;;
58414;SDS011;44210;42.706;18.344;2023-01-24T06:59:28;14.07;;;8.90;;
58414;SDS011;44210;42.706;18.344;2023-01-24T07:01:54;20.48;;;13.38;;
58414;SDS011;44210;42.706;18.344;2023-01-24T07:04:20;13.05;;;8.38;;
58414;SDS011;44210;42.706;18.344;2023-01-24T07:06:46;15.70;;;10.32;;
58414;SDS011;44210;42.706;18.344;2023-01-24T07:09:17;16.15;;;10.30;;
58414;SDS011;44210;42.706;18.344;2023-01-24T07:11:43;9.52;;;6.30;;
58414;SDS011;44210;42.706;18.344;2023-01-24T07:14:09;11.40;;;6.43;;
58414;SDS011;44210;42.706;18.344;2023-01-24T07:16:35;12.35;;;7.30;;
58414;SDS011;44210;42.706;18.344;2023-01-24T07:19:01;18.90;;;11.25;;
58414;SDS011;44210;42.706;18.344;2023-01-24T07:21:27;20.75;;;13.73;;
58414;SDS011;44210;42.706;18.344;2023-01-24T07:23:53;22.00;;;12.93;;
58414;SDS011;44210;42.706;18.344;2023-01-24T07:26:21;21.90;;;11.90;;
58414;SDS011;44210;42.706;18.344;2023-01-24T07:28:47;12.93;;;7.65;;
58414;SDS011;44210;42.706;18.344;2023-01-24T07:31:14;13.48;;;11.93;;
58414;SDS011;44210;42.706;18.344;2023-01-24T07:33:40;14.70;;;13.15;;
58414;SDS011;44210;42.706;18.344;2023-01-24T07:36:10;8.80;;;6.07;;
58414;SDS011;44210;42.706;18.344;2023-01-24T07:38:36;15.02;;;8.95;;
58414;SDS011;44210;42.706;18.344;2023-01-24T07:41:06;9.02;;;6.28;;
58414;SDS011;44210;42.706;18.344;2023-01-24T07:43:32;24.45;;;9.23;;
58414;SDS011;44210;42.706;18.344;2023-01-24T07:45:58;29.50;;;11.13;;
58414;SDS011;44210;42.706;18.344;2023-01-24T07:48:24;10.68;;;5.75;;
58414;SDS011;44210;42.706;18.344;2023-01-24T07:50:50;5.68;;;4.22;;
58414;SDS011;44210;42.706;18.344;2023-01-24T07:53:16;6.72;;;4.75;;
58414;SDS011;44210;42.706;18.344;2023-01-24T07:55:42;7.03;;;4.78;;
58414;SDS011;44210;42.706;18.344;2023-01-24T07:58:08;10.65;;;4.78;;
58414;SDS011;44210;42.706;18.344;2023-01-24T08:00:34;9.07;;;4.53;;
58414;SDS011;44210;42.706;18.344;2023-01-24T08:03:00;15.23;;;10.60;;
58414;SDS011;44210;42.706;18.344;2023-01-24T08:05:26;75.00;;;54.75;;
58414;SDS011;44210;42.706;18.344;2023-01-24T08:07:53;79.25;;;46.90;;
58414;SDS011;44210;42.706;18.344;2023-01-24T08:10:20;29.27;;;18.95;;
58414;SDS011;44210;42.706;18.344;2023-01-24T08:12:47;18.52;;;10.55;;
58414;SDS011;44210;42.706;18.344;2023-01-24T08:15:13;8.60;;;5.68;;
58414;SDS011;44210;42.706;18.344;2023-01-24T08:17:39;6.60;;;4.80;;
58414;SDS011;44210;42.706;18.344;2023-01-24T08:20:06;7.30;;;5.05;;
58414;SDS011;44210;42.706;18.344;2023-01-24T08:22:32;7.22;;;4.80;;
58414;SDS011;44210;42.706;18.344;2023-01-24T08:24:58;6.85;;;4.18;;
58414;SDS011;44210;42.706;18.344;2023-01-24T08:27:24;7.63;;;4.13;;
58414;SDS011;44210;42.706;18.344;2023-01-24T08:29:50;9.27;;;5.85;;
58414;SDS011;44210;42.706;18.344;2023-01-24T08:32:16;10.40;;;4.88;;
58414;SDS011;44210;42.706;18.344;2023-01-24T08:34:42;7.07;;;4.28;;
58414;SDS011;44210;42.706;18.344;2023-01-24T08:37:08;8.20;;;5.40;;
58414;SDS011;44210;42.706;18.344;2023-01-24T08:39:34;10.73;;;7.13;;
58414;SDS011;44210;42.706;18.344;2023-01-24T08:42:00;15.70;;;10.90;;
58414;SDS011;44210;42.706;18.344;2023-01-24T08:44:26;6.20;;;4.65;;
58414;SDS011;44210;42.706;18.344;2023-01-24T08:46:52;4.90;;;4.18;;
58414;SDS011;44210;42.706;18.344;2023-01-24T08:49:18;9.25;;;6.45;;
58414;SDS011;44210;42.706;18.344;2023-01-24T08:51:45;12.00;;;6.75;;
58414;SDS011;44210;42.706;18.344;2023-01-24T08:54:12;9.90;;;6.80;;
58414;SDS011;44210;42.706;18.344;2023-01-24T08:56:38;11.27;;;6.75;;
58414;SDS011;44210;42.706;18.344;2023-01-24T08:59:04;12.70;;;6.97;;
58414;SDS011;44210;42.706;18.344;2023-01-24T09:01:30;15.50;;;11.20;;
58414;SDS011;44210;42.706;18.344;2023-01-24T09:03:58;18.80;;;15.48;;
58414;SDS011;44210;42.706;18.344;2023-01-24T09:06:24;22.83;;;20.55;;
58414;SDS011;44210;42.706;18.344;2023-01-24T09:08:51;15.35;;;13.85;;
58414;SDS011;44210;42.706;18.344;2023-01-24T09:11:18;16.90;;;15.10;;
58414;SDS011;44210;42.706;18.344;2023-01-24T09:13:44;8.68;;;6.13;;
58414;SDS011;44210;42.706;18.344;2023-01-24T09:16:10;5.55;;;3.90;;
58414;SDS011;44210;42.706;18.344;2023-01-24T09:18:36;4.50;;;3.40;;
58414;SDS011;44210;42.706;18.344;2023-01-24T09:21:02;8.55;;;4.55;;
58414;SDS011;44210;42.706;18.344;2023-01-24T09:23:29;2.10;;;1.73;;
58414;SDS011;44210;42.706;18.344;2023-01-24T09:25:55;4.40;;;2.95;;
58414;SDS011;44210;42.706;18.344;2023-01-24T09:28:21;6.65;;;3.97;;
58414;SDS011;44210;42.706;18.344;2023-01-24T09:30:48;7.70;;;3.63;;
58414;SDS011;44210;42.706;18.344;2023-01-24T09:33:14;3.40;;;2.35;;
58414;SDS011;44210;42.706;18.344;2023-01-24T09:35:42;3.83;;;2.42;;
58414;SDS011;44210;42.706;18.344;2023-01-24T09:38:08;3.60;;;2.33;;
58414;SDS011;44210;42.706;18.344;2023-01-24T09:40:44;4.63;;;3.45;;
58414;SDS011;44210;42.706;18.344;2023-01-24T09:46:04;3.45;;;2.83;;
58414;SDS011;44210;42.706;18.344;2023-01-24T09:48:34;5.00;;;3.30;;
58414;SDS011;44210;42.706;18.344;2023-01-24T09:51:04;5.65;;;3.53;;
58414;SDS011;44210;42.706;18.344;2023-01-24T09:53:39;4.45;;;3.88;;
58414;SDS011;44210;42.706;18.344;2023-01-24T09:56:07;4.35;;;2.85;;
58414;SDS011;44210;42.706;18.344;2023-01-24T09:58:39;4.50;;;2.95;;
58414;SDS011;44210;42.706;18.344;2023-01-24T10:01:12;4.22;;;3.22;;
58414;SDS011;44210;42.706;18.344;2023-01-24T10:03:38;4.63;;;3.20;;
58414;SDS011;44210;42.706;18.344;2023-01-24T10:06:10;4.90;;;2.22;;
58414;SDS011;44210;42.706;18.344;2023-01-24T10:24:20;5.85;;;3.50;;
58414;SDS011;44210;42.706;18.344;2023-01-24T10:26:48;6.13;;;3.65;;
58414;SDS011;44210;42.706;18.344;2023-01-24T10:31:41;7.03;;;3.33;;
58414;SDS011;44210;42.706;18.344;2023-01-24T10:36:54;3.83;;;2.83;;
58414;SDS011;44210;42.706;18.344;2023-01-24T10:39:23;4.43;;;3.28;;
58414;SDS011;44210;42.706;18.344;2023-01-24T10:41:49;4.57;;;2.67;;
58414;SDS011;44210;42.706;18.344;2023-01-24T10:44:17;4.30;;;3.17;;
58414;SDS011;44210;42.706;18.344;2023-01-24T10:49:31;3.92;;;2.88;;
58414;SDS011;44210;42.706;18.344;2023-01-24T10:54:53;4.57;;;2.80;;
58414;SDS011;44210;42.706;18.344;2023-01-24T10:59:49;6.25;;;3.70;;
58414;SDS011;44210;42.706;18.344;2023-01-24T11:02:20;3.95;;;2.67;;
58414;SDS011;44210;42.706;18.344;2023-01-24T11:04:58;3.95;;;2.60;;
58414;SDS011;44210;42.706;18.344;2023-01-24T11:07:29;3.05;;;2.40;;
58414;SDS011;44210;42.706;18.344;2023-01-24T11:10:00;4.78;;;2.25;;
58414;SDS011;44210;42.706;18.344;2023-01-24T11:12:27;3.45;;;2.55;;
58414;SDS011;44210;42.706;18.344;2023-01-24T11:14:53;2.47;;;1.90;;
58414;SDS011;44210;42.706;18.344;2023-01-24T11:17:29;2.33;;;1.92;;
58414;SDS011;44210;42.706;18.344;2023-01-24T11:20:04;5.20;;;2.17;;
58414;SDS011;44210;42.706;18.344;2023-01-24T11:22:34;4.63;;;2.42;;
58414;SDS011;44210;42.706;18.344;2023-01-24T11:25:02;5.13;;;2.75;;
58414;SDS011;44210;42.706;18.344;2023-01-24T11:27:29;3.78;;;2.20;;
58414;SDS011;44210;42.706;18.344;2023-01-24T11:30:16;4.00;;;1.92;;
58414;SDS011;44210;42.706;18.344;2023-01-24T11:32:52;2.33;;;1.80;;
58414;SDS011;44210;42.706;18.344;2023-01-24T11:35:24;2.47;;;1.85;;
58414;SDS011;44210;42.706;18.344;2023-01-24T11:37:58;2.40;;;2.20;;
58414;SDS011;44210;42.706;18.344;2023-01-24T11:43:19;2.72;;;2.40;;
58414;SDS011;44210;42.706;18.344;2023-01-24T11:48:20;3.63;;;1.90;;
58414;SDS011;44210;42.706;18.344;2023-01-24T11:53:34;3.17;;;2.20;;
58414;SDS011;44210;42.706;18.344;2023-01-24T11:56:45;2.85;;;2.30;;
58414;SDS011;44210;42.706;18.344;2023-01-24T12:09:20;2.22;;;1.83;;
58414;SDS011;44210;42.706;18.344;2023-01-24T12:19:26;4.68;;;3.75;;
58414;SDS011;44210;42.706;18.344;2023-01-24T12:22:14;6.82;;;3.22;;
58414;SDS011;44210;42.706;18.344;2023-01-24T12:24:42;5.30;;;4.43;;
58414;SDS011;44210;42.706;18.344;2023-01-24T12:27:16;3.65;;;3.00;;
58414;SDS011;44210;42.706;18.344;2023-01-24T12:29:43;6.18;;;3.53;;
58414;SDS011;44210;42.706;18.344;2023-01-24T12:32:21;4.05;;;2.97;;
58414;SDS011;44210;42.706;18.344;2023-01-24T12:34:50;3.50;;;2.30;;
58414;SDS011;44210;42.706;18.344;2023-01-24T12:42:21;4.65;;;2.70;;
58414;SDS011;44210;42.706;18.344;2023-01-24T12:44:55;3.85;;;3.28;;
58414;SDS011;44210;42.706;18.344;2023-01-24T12:47:35;4.60;;;3.35;;
58414;SDS011;44210;42.706;18.344;2023-01-24T12:52:33;4.95;;;2.70;;
58414;SDS011;44210;42.706;18.344;2023-01-24T12:55:20;3.90;;;3.30;;
58414;SDS011;44210;42.706;18.344;2023-01-24T12:57:50;4.32;;;3.83;;
58414;SDS011;44210;42.706;18.344;2023-01-24T13:00:18;5.47;;;3.63;;
58414;SDS011;44210;42.706;18.344;2023-01-24T13:12:42;5.68;;;3.58;;
58414;SDS011;44210;42.706;18.344;2023-01-24T13:33:26;2.92;;;2.40;;
58414;SDS011;44210;42.706;18.344;2023-01-24T13:35:54;3.33;;;2.60;;
58414;SDS011;44210;42.706;18.344;2023-01-24T13:41:03;3.58;;;3.05;;
58414;SDS011;44210;42.706;18.344;2023-01-24T13:46:03;3.30;;;3.00;;
58414;SDS011;44210;42.706;18.344;2023-01-24T13:51:49;2.40;;;2.20;;
58414;SDS011;44210;42.706;18.344;2023-01-24T13:53:57;3.33;;;2.78;;
58414;SDS011;44210;42.706;18.344;2023-01-24T13:56:24;2.42;;;2.00;;
58414;SDS011;44210;42.706;18.344;2023-01-24T13:58:50;1.77;;;1.60;;
58414;SDS011;44210;42.706;18.344;2023-01-24T14:01:17;2.17;;;1.98;;
58414;SDS011;44210;42.706;18.344;2023-01-24T14:03:52;7.75;;;3.00;;
58414;SDS011;44210;42.706;18.344;2023-01-24T14:06:18;2.00;;;1.77;;
58414;SDS011;44210;42.706;18.344;2023-01-24T14:08:45;2.85;;;2.20;;
58414;SDS011;44210;42.706;18.344;2023-01-24T14:11:28;3.88;;;2.00;;
58414;SDS011;44210;42.706;18.344;2023-01-24T14:18:48;6.15;;;4.63;;
58414;SDS011;44210;42.706;18.344;2023-01-24T14:21:25;5.45;;;4.05;;
58414;SDS011;44210;42.706;18.344;2023-01-24T14:23:57;8.13;;;5.72;;
58414;SDS011;44210;42.706;18.344;2023-01-24T14:26:26;6.30;;;4.30;;
58414;SDS011;44210;42.706;18.344;2023-01-24T14:28:55;5.40;;;3.42;;
58414;SDS011;44210;42.706;18.344;2023-01-24T14:33:49;7.63;;;4.43;;
58414;SDS011;44210;42.706;18.344;2023-01-24T14:36:21;5.95;;;4.70;;
58414;SDS011;44210;42.706;18.344;2023-01-24T14:39:09;7.65;;;4.93;;
58414;SDS011;44210;42.706;18.344;2023-01-24T14:41:34;9.40;;;8.07;;
58414;SDS011;44210;42.706;18.344;2023-01-24T14:44:01;10.48;;;7.57;;
58414;SDS011;44210;42.706;18.344;2023-01-24T14:46:27;11.20;;;5.88;;
58414;SDS011;44210;42.706;18.344;2023-01-24T14:48:53;8.90;;;6.00;;
58414;SDS011;44210;42.706;18.344;2023-01-24T14:51:22;6.35;;;4.47;;
58414;SDS011;44210;42.706;18.344;2023-01-24T14:53:53;5.78;;;4.55;;
58414;SDS011;44210;42.706;18.344;2023-01-24T14:56:19;7.47;;;4.95;;
58414;SDS011;44210;42.706;18.344;2023-01-24T14:58:47;5.70;;;4.55;;
58414;SDS011;44210;42.706;18.344;2023-01-24T15:01:21;4.50;;;3.38;;
58414;SDS011;44210;42.706;18.344;2023-01-24T15:03:48;4.10;;;3.00;;
58414;SDS011;44210;42.706;18.344;2023-01-24T15:06:16;3.60;;;3.05;;
58414;SDS011;44210;42.706;18.344;2023-01-24T15:08:43;6.45;;;4.18;;
58414;SDS011;44210;42.706;18.344;2023-01-24T15:11:20;4.78;;;3.33;;
58414;SDS011;44210;42.706;18.344;2023-01-24T15:13:49;4.47;;;3.75;;
58414;SDS011;44210;42.706;18.344;2023-01-24T15:16:20;4.80;;;3.83;;
58414;SDS011;44210;42.706;18.344;2023-01-24T15:18:47;4.00;;;2.88;;
58414;SDS011;44210;42.706;18.344;2023-01-24T15:21:25;4.05;;;3.15;;
58414;SDS011;44210;42.706;18.344;2023-01-24T15:23:52;4.93;;;3.63;;
58414;SDS011;44210;42.706;18.344;2023-01-24T15:26:23;4.22;;;3.15;;
58414;SDS011;44210;42.706;18.344;2023-01-24T15:28:50;5.50;;;4.22;;
58414;SDS011;44210;42.706;18.344;2023-01-24T15:31:18;7.10;;;5.15;;
58414;SDS011;44210;42.706;18.344;2023-01-24T15:33:44;6.70;;;4.85;;
58414;SDS011;44210;42.706;18.344;2023-01-24T15:36:22;8.45;;;4.78;;
58414;SDS011;44210;42.706;18.344;2023-01-24T15:38:48;4.15;;;3.50;;
58414;SDS011;44210;42.706;18.344;2023-01-24T15:44:10;7.43;;;4.80;;
58414;SDS011;44210;42.706;18.344;2023-01-24T15:46:40;6.60;;;5.03;;
58414;SDS011;44210;42.706;18.344;2023-01-24T15:49:26;6.90;;;5.35;;
58414;SDS011;44210;42.706;18.344;2023-01-24T15:54:46;8.65;;;7.75;;
58414;SDS011;44210;42.706;18.344;2023-01-24T15:59:44;11.55;;;10.15;;
58414;SDS011;44210;42.706;18.344;2023-01-24T16:02:11;10.40;;;8.35;;
58414;SDS011;44210;42.706;18.344;2023-01-24T16:04:37;10.25;;;8.80;;
58414;SDS011;44210;42.706;18.344;2023-01-24T16:07:04;7.57;;;5.78;;
58414;SDS011;44210;42.706;18.344;2023-01-24T16:09:30;7.68;;;6.18;;
58414;SDS011;44210;42.706;18.344;2023-01-24T16:11:56;6.57;;;5.07;;
58414;SDS011;44210;42.706;18.344;2023-01-24T16:14:23;7.85;;;4.93;;
58414;SDS011;44210;42.706;18.344;2023-01-24T16:16:53;4.95;;;4.03;;
58414;SDS011;44210;42.706;18.344;2023-01-24T16:19:20;5.93;;;2.65;;
58414;SDS011;44210;42.706;18.344;2023-01-24T16:21:47;3.10;;;2.80;;
58414;SDS011;44210;42.706;18.344;2023-01-24T16:24:13;2.70;;;2.20;;
58414;SDS011;44210;42.706;18.344;2023-01-24T16:26:40;3.13;;;2.58;;
58414;SDS011;44210;42.706;18.344;2023-01-24T16:29:13;4.32;;;3.20;;
58414;SDS011;44210;42.706;18.344;2023-01-24T16:31:40;8.32;;;4.35;;
58414;SDS011;44210;42.706;18.344;2023-01-24T16:34:06;6.18;;;4.78;;
58414;SDS011;44210;42.706;18.344;2023-01-24T16:36:33;6.30;;;4.30;;
58414;SDS011;44210;42.706;18.344;2023-01-24T16:38:59;12.15;;;4.80;;
58414;SDS011;44210;42.706;18.344;2023-01-24T16:41:25;5.28;;;4.18;;
58414;SDS011;44210;42.706;18.344;2023-01-24T16:43:51;7.03;;;4.10;;
58414;SDS011;44210;42.706;18.344;2023-01-24T16:46:18;4.28;;;3.00;;
58414;SDS011;44210;42.706;18.344;2023-01-24T16:48:45;4.72;;;3.63;;
58414;SDS011;44210;42.706;18.344;2023-01-24T16:51:11;6.75;;;3.60;;
58414;SDS011;44210;42.706;18.344;2023-01-24T16:53:38;4.60;;;3.72;;
58414;SDS011;44210;42.706;18.344;2023-01-24T16:56:04;8.52;;;4.72;;
58414;SDS011;44210;42.706;18.344;2023-01-24T16:58:30;6.32;;;4.75;;
58414;SDS011;44210;42.706;18.344;2023-01-24T17:00:56;8.30;;;4.45;;